Time;durP1;ratioP1;P1;durP2;ratioP2;P2;SDS_P1;SDS_P2;PMS_P1;PMS_P2;Temp;Humidity;BMP_temperature;BMP_pressure;BME280_temperature;BME280_humidity;BME280_pressure;Samples;Min_cycle;Max_cycle;Signal;HPM_P1;HPM_P2
2023/08/29 00:00:01;;;;;;;5.45;3.50;;;11.80;99.90;;;;;;4959109;28;20205;-83
2023/08/29 00:02:32;;;;;;;5.05;3.28;;;11.70;99.90;;;;;;4957343;28;20030;-84
2023/08/29 00:04:58;;;;;;;5.72;3.70;;;11.70;99.90;;;;;;4955331;28;20034;-84
2023/08/29 00:07:24;;;;;;;6.80;3.25;;;11.70;99.90;;;;;;4956725;28;20109;-84
2023/08/29 00:09:49;;;;;;;4.07;2.95;;;11.60;99.90;;;;;;4956659;28;20177;-84
2023/08/29 00:12:15;;;;;;;4.55;3.53;;;11.50;99.90;;;;;;4975680;28;20708;-84
2023/08/29 00:14:41;;;;;;;5.05;3.45;;;11.50;99.90;;;;;;4956035;28;20070;-84
2023/08/29 00:17:07;;;;;;;4.72;3.60;;;11.40;99.90;;;;;;4957943;28;20466;-84
2023/08/29 00:19:33;;;;;;;4.05;3.13;;;11.40;99.90;;;;;;4976126;28;20042;-83
2023/08/29 00:21:59;;;;;;;4.53;3.20;;;11.40;99.90;;;;;;4972220;28;20494;-83
2023/08/29 00:24:26;;;;;;;4.18;3.33;;;11.40;99.90;;;;;;4954846;28;20049;-84
2023/08/29 00:26:54;;;;;;;4.13;3.38;;;11.40;99.90;;;;;;4946920;28;20154;-84
2023/08/29 00:29:20;;;;;;;4.32;3.63;;;11.30;99.90;;;;;;4941669;28;20043;-84
2023/08/29 00:31:46;;;;;;;6.15;3.50;;;11.30;99.90;;;;;;4941386;28;20045;-85
2023/08/29 00:34:12;;;;;;;5.63;4.40;;;11.30;99.90;;;;;;4973645;28;20034;-84
2023/08/29 00:36:37;;;;;;;7.43;4.15;;;11.30;99.90;;;;;;4944483;28;20042;-83
2023/08/29 00:39:03;;;;;;;8.95;4.70;;;11.40;99.90;;;;;;4953826;28;20039;-84
2023/08/29 00:41:30;;;;;;;5.38;4.55;;;11.50;99.90;;;;;;4972117;28;20577;-84
2023/08/29 00:43:56;;;;;;;5.57;4.30;;;11.50;99.90;;;;;;4958059;28;20050;-84
2023/08/29 00:46:23;;;;;;;6.75;4.43;;;11.50;99.90;;;;;;4961044;28;20050;-84
2023/08/29 00:48:49;;;;;;;5.93;4.68;;;11.60;99.90;;;;;;4948285;28;20349;-84
2023/08/29 00:51:16;;;;;;;5.65;3.78;;;11.60;99.90;;;;;;4958397;28;20108;-84
2023/08/29 00:53:42;;;;;;;5.78;4.72;;;11.50;99.90;;;;;;4960571;28;20426;-84
2023/08/29 00:56:08;;;;;;;5.30;2.58;;;11.40;99.90;;;;;;4962328;28;20104;-84
2023/08/29 00:58:34;;;;;;;4.00;3.20;;;11.20;99.90;;;;;;4945108;28;20442;-84
2023/08/29 01:01:00;;;;;;;4.65;3.10;;;11.10;99.90;;;;;;4945269;28;20038;-84
2023/08/29 01:03:26;;;;;;;3.75;2.97;;;11.00;99.90;;;;;;4957559;28;20053;-84
2023/08/29 01:05:51;;;;;;;4.45;3.17;;;11.00;99.90;;;;;;4945898;28;20393;-84
2023/08/29 01:08:17;;;;;;;4.00;2.08;;;11.00;99.90;;;;;;4961146;28;20060;-84
2023/08/29 01:11:09;;;;;;;4.85;3.20;;;10.90;99.90;;;;;;4958891;28;20402;-84
2023/08/29 01:13:52;;;;;;;5.47;2.92;;;10.90;99.90;;;;;;4962292;28;20058;-84
2023/08/29 01:16:26;;;;;;;8.52;3.35;;;10.80;99.90;;;;;;4979271;28;20105;-84
2023/08/29 01:18:55;;;;;;;4.65;3.13;;;10.80;99.90;;;;;;4979285;28;20041;-83
2023/08/29 01:21:39;;;;;;;4.30;3.28;;;10.80;99.90;;;;;;4974635;28;20035;-84
2023/08/29 01:24:10;;;;;;;4.22;3.35;;;10.80;99.90;;;;;;4962483;28;20334;-84
2023/08/29 01:26:36;;;;;;;2.20;1.73;;;10.70;99.90;;;;;;4975064;28;20536;-83
2023/08/29 01:29:03;;;;;;;4.10;2.90;;;10.60;99.90;;;;;;4949344;28;20508;-84
2023/08/29 01:31:31;;;;;;;4.30;3.25;;;10.70;99.90;;;;;;4962000;28;20516;-83
2023/08/29 01:34:01;;;;;;;4.22;2.85;;;10.70;99.90;;;;;;4963409;28;20500;-84
2023/08/29 01:36:37;;;;;;;3.47;2.50;;;10.70;99.90;;;;;;4960399;28;20034;-85
2023/08/29 01:39:03;;;;;;;3.85;3.17;;;10.60;99.90;;;;;;4961616;28;20049;-84
2023/08/29 01:41:31;;;;;;;3.40;2.90;;;10.60;99.90;;;;;;4960362;28;20038;-83
2023/08/29 01:43:57;;;;;;;4.55;3.63;;;10.60;99.90;;;;;;4979454;28;20517;-84
2023/08/29 01:46:23;;;;;;;4.03;3.40;;;10.60;99.90;;;;;;4961308;28;20050;-84
2023/08/29 01:48:49;;;;;;;3.88;3.13;;;10.50;99.90;;;;;;4961380;28;20414;-84
2023/08/29 01:51:15;;;;;;;2.85;2.55;;;10.50;99.90;;;;;;4976660;28;20596;-84
2023/08/29 01:53:42;;;;;;;2.42;2.10;;;10.40;99.90;;;;;;4963819;28;20063;-84
2023/08/29 01:56:09;;;;;;;3.67;3.03;;;10.40;99.90;;;;;;4973546;28;20105;-83
2023/08/29 01:58:37;;;;;;;6.38;4.07;;;10.40;99.90;;;;;;4957658;28;20478;-84
2023/08/29 02:01:03;;;;;;;5.03;3.95;;;10.40;99.90;;;;;;4960826;28;20058;-83
2023/08/29 02:03:29;;;;;;;4.63;3.55;;;10.40;99.90;;;;;;4945372;28;20093;-84
2023/08/29 02:06:05;;;;;;;6.18;4.05;;;10.30;99.90;;;;;;4958026;28;20062;-83
2023/08/29 02:08:30;;;;;;;5.10;3.20;;;10.40;99.90;;;;;;4976263;28;20223;-84
2023/08/29 02:10:56;;;;;;;5.43;3.80;;;10.30;99.90;;;;;;4959834;28;21623;-83
2023/08/29 02:13:22;;;;;;;4.68;3.65;;;10.30;99.90;;;;;;4958939;28;20122;-84
2023/08/29 02:15:47;;;;;;;5.47;3.85;;;10.30;99.90;;;;;;4977936;28;20038;-84
2023/08/29 02:18:13;;;;;;;6.55;5.03;;;10.30;99.90;;;;;;4973227;28;20105;-84
2023/08/29 02:20:39;;;;;;;5.28;4.38;;;10.30;99.90;;;;;;4945491;28;20132;-84
2023/08/29 02:23:04;;;;;;;6.22;4.47;;;10.30;99.90;;;;;;4943912;28;20049;-84
2023/08/29 02:25:30;;;;;;;6.45;4.95;;;10.20;99.90;;;;;;4957971;28;20056;-84
2023/08/29 02:27:56;;;;;;;5.43;4.55;;;10.30;99.90;;;;;;4976554;28;20046;-84
2023/08/29 02:30:21;;;;;;;5.68;4.68;;;10.40;99.90;;;;;;4962039;28;20043;-84
2023/08/29 02:32:47;;;;;;;6.38;4.80;;;10.40;99.90;;;;;;4959137;28;20120;-84
2023/08/29 02:35:13;;;;;;;5.85;4.50;;;10.30;99.90;;;;;;4958017;28;20085;-83
2023/08/29 02:37:40;;;;;;;6.20;4.28;;;10.20;99.90;;;;;;4948103;28;20038;-83
2023/08/29 02:40:08;;;;;;;4.88;4.38;;;10.20;99.90;;;;;;4940442;28;20159;-83
2023/08/29 02:42:34;;;;;;;7.53;4.35;;;10.30;99.90;;;;;;4957187;28;20177;-83
2023/08/29 02:45:04;;;;;;;6.97;4.47;;;10.30;99.90;;;;;;4952800;28;20047;-84
2023/08/29 02:47:30;;;;;;;4.53;3.70;;;10.20;99.90;;;;;;4941043;28;20045;-83
2023/08/29 02:49:55;;;;;;;5.25;4.00;;;10.20;99.90;;;;;;4959229;28;20038;-83
2023/08/29 02:52:21;;;;;;;5.75;4.60;;;10.10;99.90;;;;;;4959047;28;20050;-84
2023/08/29 02:54:47;;;;;;;4.60;4.05;;;10.10;99.90;;;;;;4960752;28;20038;-83
2023/08/29 02:57:12;;;;;;;7.05;4.13;;;10.00;99.90;;;;;;4957835;28;20134;-83
2023/08/29 02:59:42;;;;;;;4.28;3.47;;;10.00;99.90;;;;;;4955862;28;20406;-83
2023/08/29 03:02:08;;;;;;;5.10;4.40;;;10.00;99.90;;;;;;4960705;28;20505;-83
2023/08/29 03:04:33;;;;;;;4.47;4.00;;;10.00;99.90;;;;;;4977368;28;20034;-84
2023/08/29 03:06:59;;;;;;;4.05;3.65;;;9.90;99.90;;;;;;4940723;28;20046;-84
2023/08/29 03:09:25;;;;;;;4.60;3.90;;;10.00;99.90;;;;;;4955148;28;20105;-83
2023/08/29 03:11:51;;;;;;;6.30;4.53;;;9.90;99.90;;;;;;4974856;28;20042;-84
2023/08/29 03:14:16;;;;;;;6.22;3.65;;;10.00;99.90;;;;;;4961543;28;20512;-84
2023/08/29 03:16:42;;;;;;;4.50;3.60;;;10.00;99.90;;;;;;4976760;28;20141;-82
2023/08/29 03:19:08;;;;;;;5.22;3.85;;;10.00;99.90;;;;;;4957451;28;20557;-83
2023/08/29 03:21:34;;;;;;;5.15;4.05;;;10.00;99.90;;;;;;4974570;28;20041;-84
2023/08/29 03:24:05;;;;;;;8.55;3.67;;;9.90;99.90;;;;;;4972016;28;20054;-84
2023/08/29 03:26:33;;;;;;;6.53;4.70;;;9.90;99.90;;;;;;4973023;28;20050;-84
2023/08/29 03:28:59;;;;;;;6.57;5.00;;;9.80;99.90;;;;;;4943736;28;20045;-84
2023/08/29 03:31:25;;;;;;;6.95;5.20;;;9.90;99.90;;;;;;4960626;28;20050;-83
2023/08/29 03:33:51;;;;;;;6.82;4.43;;;9.90;99.90;;;;;;4956212;28;20581;-84
2023/08/29 03:36:17;;;;;;;5.30;4.10;;;9.80;99.90;;;;;;4977196;28;20077;-83
2023/08/29 03:38:42;;;;;;;6.95;4.45;;;9.80;99.90;;;;;;4961121;28;20073;-83
2023/08/29 03:41:08;;;;;;;4.40;3.65;;;9.90;99.90;;;;;;4974133;28;20141;-84
2023/08/29 03:43:35;;;;;;;4.53;3.60;;;9.80;99.90;;;;;;4975165;28;20042;-84
2023/08/29 03:46:06;;;;;;;6.30;4.13;;;9.80;99.90;;;;;;4961189;28;20045;-83
2023/08/29 03:48:33;;;;;;;7.90;5.15;;;9.80;99.90;;;;;;4944003;28;20050;-83
2023/08/29 03:51:06;;;;;;;5.40;3.53;;;9.90;99.90;;;;;;4942538;28;20041;-83
2023/08/29 03:53:36;;;;;;;6.68;5.47;;;9.80;99.90;;;;;;4954331;28;20061;-83
2023/08/29 03:56:09;;;;;;;5.80;4.30;;;10.00;99.90;;;;;;4942658;28;20156;-84
2023/08/29 03:58:35;;;;;;;6.88;5.38;;;10.00;99.90;;;;;;4943090;28;20049;-84
2023/08/29 04:01:04;;;;;;;5.70;4.30;;;9.90;99.90;;;;;;4974373;28;20045;-84
2023/08/29 04:03:33;;;;;;;7.05;4.53;;;9.90;99.90;;;;;;4958462;28;20391;-84
2023/08/29 04:05:59;;;;;;;6.13;4.22;;;9.90;99.90;;;;;;4977441;28;20049;-85
2023/08/29 04:08:24;;;;;;;6.18;3.50;;;9.90;99.90;;;;;;4958169;28;20077;-84
2023/08/29 04:10:50;;;;;;;6.70;4.13;;;9.80;99.90;;;;;;4955737;28;20061;-84
2023/08/29 04:13:18;;;;;;;5.40;4.78;;;9.80;99.90;;;;;;4941946;28;20437;-84
2023/08/29 04:15:44;;;;;;;4.90;4.18;;;9.90;99.90;;;;;;4962696;28;20140;-84
2023/08/29 04:18:10;;;;;;;4.88;3.72;;;9.90;99.90;;;;;;4960187;28;20038;-84
2023/08/29 04:20:36;;;;;;;4.90;3.08;;;9.80;99.90;;;;;;4958504;28;20065;-84
2023/08/29 04:23:06;;;;;;;4.10;3.35;;;9.70;99.90;;;;;;4960824;28;20097;-84
2023/08/29 04:25:36;;;;;;;4.50;3.70;;;9.70;99.90;;;;;;4957258;28;20081;-84
2023/08/29 04:28:03;;;;;;;4.05;3.38;;;9.70;99.90;;;;;;4942294;28;20080;-84
2023/08/29 04:30:29;;;;;;;3.90;3.17;;;9.60;99.90;;;;;;4960478;28;20107;-84
2023/08/29 04:32:59;;;;;;;6.43;3.38;;;9.50;99.90;;;;;;4941992;28;20046;-84
2023/08/29 04:35:25;;;;;;;3.33;2.60;;;9.50;99.90;;;;;;4972655;28;20039;-84
2023/08/29 04:37:51;;;;;;;5.15;3.00;;;9.50;99.90;;;;;;4976498;28;20032;-84
2023/08/29 04:40:18;;;;;;;3.72;3.17;;;9.40;99.90;;;;;;4959711;28;20030;-84
2023/08/29 04:42:44;;;;;;;3.28;2.95;;;9.40;99.90;;;;;;4943868;28;20049;-83
2023/08/29 04:45:10;;;;;;;6.70;3.70;;;9.40;99.90;;;;;;4970255;28;20065;-84
2023/08/29 04:47:36;;;;;;;4.07;3.17;;;9.40;99.90;;;;;;4941761;28;20050;-84
2023/08/29 04:50:03;;;;;;;4.28;3.20;;;9.30;99.90;;;;;;4974743;28;20038;-84
2023/08/29 04:52:29;;;;;;;4.75;3.17;;;9.40;99.90;;;;;;4955027;28;20065;-84
2023/08/29 04:54:55;;;;;;;5.72;3.05;;;9.40;99.90;;;;;;4940677;28;20508;-84
2023/08/29 04:57:21;;;;;;;4.18;3.10;;;9.40;99.90;;;;;;4940593;28;20038;-85
2023/08/29 04:59:48;;;;;;;4.15;3.67;;;9.40;99.90;;;;;;4947536;28;20465;-84
2023/08/29 05:02:14;;;;;;;3.45;2.80;;;9.40;99.90;;;;;;4942110;28;20473;-84
2023/08/29 05:04:42;;;;;;;4.65;3.60;;;9.40;99.90;;;;;;4969687;28;20148;-84
2023/08/29 05:07:09;;;;;;;5.13;3.50;;;9.40;99.90;;;;;;4956675;28;20062;-84
2023/08/29 05:09:35;;;;;;;3.80;2.88;;;9.50;99.90;;;;;;4943943;28;20046;-84
2023/08/29 05:12:01;;;;;;;4.72;3.30;;;9.50;99.90;;;;;;4956586;28;20525;-85
2023/08/29 05:14:27;;;;;;;3.50;2.97;;;9.50;99.90;;;;;;4941603;28;20296;-84
2023/08/29 05:16:53;;;;;;;5.05;3.70;;;9.50;99.90;;;;;;4941953;28;20797;-84
2023/08/29 05:19:19;;;;;;;3.80;2.85;;;9.50;99.90;;;;;;4941837;28;20050;-84
2023/08/29 05:21:44;;;;;;;3.97;3.05;;;9.50;99.90;;;;;;4971023;28;20485;-84
2023/08/29 05:24:10;;;;;;;4.78;3.35;;;9.60;99.90;;;;;;4952821;28;20501;-84
2023/08/29 05:26:38;;;;;;;4.63;3.40;;;9.70;99.90;;;;;;4971530;28;20046;-85
2023/08/29 05:29:04;;;;;;;6.10;3.63;;;9.70;99.90;;;;;;4971066;28;20368;-84
2023/08/29 05:31:30;;;;;;;4.35;3.33;;;9.80;99.90;;;;;;4943283;28;20594;-84
2023/08/29 05:33:56;;;;;;;4.07;3.00;;;9.80;99.90;;;;;;4974205;28;20053;-84
2023/08/29 05:36:21;;;;;;;6.32;3.33;;;9.90;99.90;;;;;;4958157;28;20048;-84
2023/08/29 05:38:47;;;;;;;4.35;3.05;;;9.90;99.90;;;;;;4960294;28;20073;-84
2023/08/29 05:41:13;;;;;;;5.32;3.55;;;10.00;99.90;;;;;;4960691;28;20673;-85
2023/08/29 05:43:39;;;;;;;4.95;3.28;;;10.10;99.90;;;;;;4947679;28;20034;-85
2023/08/29 05:46:05;;;;;;;4.65;3.17;;;10.10;99.90;;;;;;4961720;28;20213;-84
2023/08/29 05:48:32;;;;;;;3.60;2.90;;;10.10;99.90;;;;;;4978459;28;20129;-85
2023/08/29 05:50:57;;;;;;;4.47;3.08;;;10.20;99.90;;;;;;4961920;28;20077;-84
2023/08/29 05:53:23;;;;;;;5.43;3.60;;;10.20;99.90;;;;;;4959633;28;20487;-84
2023/08/29 05:55:48;;;;;;;7.00;3.38;;;10.30;99.90;;;;;;4973032;28;20035;-85
2023/08/29 05:58:15;;;;;;;4.10;3.15;;;10.40;99.90;;;;;;4977802;28;20038;-84
2023/08/29 06:00:41;;;;;;;4.88;3.22;;;10.50;99.90;;;;;;4962944;28;20038;-84
2023/08/29 06:03:07;;;;;;;4.93;3.85;;;10.50;99.90;;;;;;4944617;28;20114;-84
2023/08/29 06:05:36;;;;;;;6.82;3.67;;;10.60;99.90;;;;;;4973909;28;20120;-84
2023/08/29 06:08:03;;;;;;;7.00;4.47;;;10.70;99.90;;;;;;4976536;28;20054;-84
2023/08/29 06:10:29;;;;;;;5.65;4.38;;;10.90;99.90;;;;;;4976475;28;20060;-85
2023/08/29 06:12:55;;;;;;;5.45;4.43;;;11.20;99.90;;;;;;4976056;28;20441;-84
2023/08/29 06:15:22;;;;;;;5.05;4.22;;;11.30;99.90;;;;;;4957840;28;20053;-84
2023/08/29 06:17:48;;;;;;;5.80;3.97;;;11.50;99.90;;;;;;4974248;28;20126;-84
2023/08/29 06:20:15;;;;;;;5.35;3.78;;;11.60;99.90;;;;;;4959133;28;20114;-84
2023/08/29 06:22:41;;;;;;;6.05;4.10;;;11.80;99.90;;;;;;4946346;28;20117;-85
2023/08/29 06:25:07;;;;;;;5.20;4.18;;;12.00;99.90;;;;;;4963353;28;20054;-84
2023/08/29 06:27:36;;;;;;;6.35;4.05;;;12.10;99.90;;;;;;4941692;28;20046;-84
2023/08/29 06:30:02;;;;;;;5.30;3.85;;;12.30;99.90;;;;;;4974842;28;20045;-85
2023/08/29 06:32:29;;;;;;;5.43;3.78;;;12.50;99.90;;;;;;4957202;28;20051;-85
2023/08/29 06:34:55;;;;;;;5.20;3.72;;;12.70;99.90;;;;;;4960399;28;20045;-85
2023/08/29 06:37:21;;;;;;;6.53;4.25;;;12.90;99.90;;;;;;4961932;28;20043;-84
2023/08/29 06:39:47;;;;;;;5.65;4.05;;;13.00;99.90;;;;;;4959637;28;20042;-84
2023/08/29 06:42:12;;;;;;;6.18;4.30;;;13.20;99.90;;;;;;4974539;28;20044;-84
2023/08/29 06:44:38;;;;;;;4.60;3.80;;;13.30;99.90;;;;;;4954311;28;20047;-84
2023/08/29 06:47:04;;;;;;;7.15;3.63;;;13.50;99.90;;;;;;4974209;28;20168;-83
2023/08/29 06:49:30;;;;;;;5.75;4.13;;;13.70;99.90;;;;;;4977864;28;20470;-84
2023/08/29 06:51:59;;;;;;;5.55;3.70;;;13.90;99.90;;;;;;4975722;28;20034;-85
2023/08/29 06:54:24;;;;;;;4.80;3.40;;;14.10;99.90;;;;;;4960754;28;20125;-85
2023/08/29 06:56:50;;;;;;;5.22;3.70;;;14.20;99.90;;;;;;4941791;28;20471;-85
2023/08/29 06:59:19;;;;;;;5.88;3.63;;;14.40;99.90;;;;;;4974981;28;20457;-85
2023/08/29 07:01:44;;;;;;;4.53;3.40;;;14.60;99.90;;;;;;4974588;28;20043;-85
2023/08/29 07:04:11;;;;;;;4.75;3.50;;;14.70;99.90;;;;;;4958140;28;20112;-85
2023/08/29 07:06:37;;;;;;;4.65;3.50;;;14.80;99.90;;;;;;4961396;28;20078;-85
2023/08/29 07:09:03;;;;;;;4.63;3.60;;;15.00;99.90;;;;;;4953710;28;20070;-85
2023/08/29 07:11:32;;;;;;;6.38;3.25;;;15.10;99.90;;;;;;4943803;28;20038;-85
2023/08/29 07:13:57;;;;;;;3.60;3.20;;;15.20;99.90;;;;;;4960520;28;20117;-84
2023/08/29 07:16:23;;;;;;;5.82;3.85;;;15.30;99.90;;;;;;4960389;28;20413;-85
2023/08/29 07:18:49;;;;;;;7.07;3.20;;;15.40;99.90;;;;;;4972765;28;20094;-84
2023/08/29 07:21:14;;;;;;;3.60;2.85;;;15.60;99.90;;;;;;4958353;28;20040;-85
2023/08/29 07:23:43;;;;;;;5.15;2.40;;;15.60;99.90;;;;;;4973851;28;20150;-84
2023/08/29 07:26:09;;;;;;;3.20;2.70;;;15.70;99.90;;;;;;4958678;28;20034;-84
2023/08/29 07:28:34;;;;;;;5.88;2.88;;;15.80;99.90;;;;;;4953315;28;20038;-84
2023/08/29 07:31:00;;;;;;;4.28;2.83;;;15.90;99.90;;;;;;4942756;28;20046;-84
2023/08/29 07:33:25;;;;;;;3.28;2.70;;;16.00;99.90;;;;;;4942754;28;20145;-84
2023/08/29 07:35:51;;;;;;;5.72;2.88;;;16.20;99.90;;;;;;4957564;28;20109;-85
2023/08/29 07:38:18;;;;;;;4.75;2.60;;;16.20;99.90;;;;;;4951120;28;20038;-84
2023/08/29 07:40:45;;;;;;;3.30;2.35;;;16.30;99.90;;;;;;4953907;28;20490;-84
2023/08/29 07:43:11;;;;;;;2.25;1.90;;;16.40;99.90;;;;;;4959378;28;20573;-85
2023/08/29 07:45:37;;;;;;;3.50;2.20;;;16.50;99.90;;;;;;4975344;28;20476;-84
2023/08/29 07:48:03;;;;;;;3.92;2.05;;;16.60;99.90;;;;;;4959818;28;20638;-84
2023/08/29 07:50:30;;;;;;;3.95;1.90;;;16.70;99.90;;;;;;4945218;28;20105;-85
2023/08/29 07:52:55;;;;;;;6.32;2.40;;;16.70;99.90;;;;;;4960096;28;20124;-84
2023/08/29 07:55:26;;;;;;;3.08;2.00;;;16.90;99.90;;;;;;4940164;28;20050;-85
2023/08/29 07:57:52;;;;;;;3.13;2.05;;;16.90;99.90;;;;;;4958231;28;20035;-85
2023/08/29 08:00:18;;;;;;;2.75;2.22;;;17.00;99.90;;;;;;4975194;28;20554;-86
2023/08/29 08:02:44;;;;;;;4.00;2.72;;;17.10;99.90;;;;;;4976293;28;20038;-85
2023/08/29 08:05:16;;;;;;;3.08;2.20;;;17.20;99.90;;;;;;4961107;28;20453;-85
2023/08/29 08:07:44;;;;;;;4.57;2.20;;;17.40;99.90;;;;;;4941484;28;20571;-84
2023/08/29 08:10:11;;;;;;;3.28;2.20;;;17.50;99.90;;;;;;4971708;28;20490;-84
2023/08/29 08:12:38;;;;;;;3.85;2.25;;;17.60;99.90;;;;;;4971097;28;20057;-84
2023/08/29 08:15:05;;;;;;;2.08;1.60;;;17.70;99.90;;;;;;4940704;28;20430;-85
2023/08/29 08:17:35;;;;;;;2.55;1.90;;;17.60;99.90;;;;;;4975708;28;20322;-84
2023/08/29 08:20:05;;;;;;;4.13;1.05;;;17.70;99.90;;;;;;4957668;28;20366;-85
2023/08/29 08:22:30;;;;;;;2.30;1.10;;;17.70;99.90;;;;;;4974951;28;20049;-85
2023/08/29 08:24:56;;;;;;;2.50;1.40;;;17.80;99.90;;;;;;4950242;28;20055;-84
2023/08/29 08:27:22;;;;;;;2.20;1.40;;;17.80;99.90;;;;;;4951200;28;20042;-85
2023/08/29 08:29:50;;;;;;;1.80;1.27;;;17.90;99.90;;;;;;4960653;28;20046;-84
2023/08/29 08:32:16;;;;;;;2.45;1.35;;;18.10;99.90;;;;;;4958467;28;20999;-84
2023/08/29 08:34:41;;;;;;;2.25;1.15;;;18.00;99.90;;;;;;4958112;28;20530;-85
2023/08/29 08:37:08;;;;;;;3.03;1.20;;;18.10;99.90;;;;;;4942500;28;20189;-84
2023/08/29 08:39:34;;;;;;;3.53;1.50;;;18.30;99.90;;;;;;4955022;28;20039;-84
2023/08/29 08:42:02;;;;;;;2.70;1.50;;;18.30;99.90;;;;;;4942078;28;20046;-85
2023/08/29 08:44:34;;;;;;;2.13;1.20;;;18.30;99.90;;;;;;4957317;28;20100;-85
2023/08/29 08:47:00;;;;;;;1.52;1.40;;;18.50;99.90;;;;;;4947641;28;20617;-86
2023/08/29 08:49:26;;;;;;;1.58;1.48;;;18.70;99.90;;;;;;4975131;28;20117;-83
2023/08/29 08:51:53;;;;;;;2.30;1.90;;;18.60;99.90;;;;;;4943473;28;20541;-84
2023/08/29 08:54:19;;;;;;;3.10;2.00;;;18.60;99.90;;;;;;4945102;28;20494;-85
2023/08/29 08:56:46;;;;;;;1.75;1.45;;;18.80;99.90;;;;;;4942834;28;20062;-83
2023/08/29 08:59:12;;;;;;;3.40;1.60;;;18.90;99.90;;;;;;4936711;28;20043;-84
2023/08/29 09:01:38;;;;;;;3.47;1.73;;;19.20;99.90;;;;;;4943161;28;20425;-84
2023/08/29 09:04:04;;;;;;;2.08;1.50;;;19.20;99.90;;;;;;4973316;28;20101;-84
2023/08/29 09:06:30;;;;;;;3.40;1.70;;;19.40;99.90;;;;;;4959235;28;20320;-85
2023/08/29 09:09:15;;;;;;;2.33;1.77;;;19.40;99.90;;;;;;4960512;28;20146;-84
2023/08/29 09:11:42;;;;;;;4.00;1.60;;;19.30;99.90;;;;;;4961162;28;20039;-85
2023/08/29 09:14:08;;;;;;;2.08;1.70;;;19.50;99.90;;;;;;4975296;28;20622;-84
2023/08/29 09:16:37;;;;;;;1.80;1.55;;;19.20;99.90;;;;;;4947693;28;20038;-84
2023/08/29 09:19:06;;;;;;;3.45;1.40;;;19.30;99.90;;;;;;4945692;28;20670;-84
2023/08/29 09:21:33;;;;;;;2.17;0.88;;;19.00;99.90;;;;;;4962438;28;20046;-84
2023/08/29 09:23:59;;;;;;;5.18;1.17;;;18.80;99.90;;;;;;4945928;28;20054;-85
2023/08/29 09:26:31;;;;;;;1.33;0.93;;;18.60;99.90;;;;;;4959725;28;20177;-84
2023/08/29 09:28:57;;;;;;;2.90;1.02;;;18.90;99.90;;;;;;4947486;28;20475;-84
2023/08/29 09:31:22;;;;;;;0.98;0.80;;;18.90;99.90;;;;;;4962278;28;20050;-84
2023/08/29 09:33:48;;;;;;;1.60;0.85;;;18.70;99.90;;;;;;4977994;28;20354;-85
2023/08/29 09:36:14;;;;;;;2.42;0.90;;;18.90;99.90;;;;;;4978500;28;20133;-83
2023/08/29 09:38:41;;;;;;;1.50;1.00;;;18.90;99.90;;;;;;4978628;28;20118;-83
2023/08/29 09:41:14;;;;;;;2.00;0.90;;;19.00;99.90;;;;;;4959225;28;20069;-84
2023/08/29 09:43:47;;;;;;;1.27;0.73;;;19.10;99.90;;;;;;4963650;28;20074;-85
2023/08/29 09:46:13;;;;;;;1.38;0.70;;;18.90;99.90;;;;;;4962683;28;20576;-84
2023/08/29 09:48:56;;;;;;;1.25;0.70;;;19.00;99.90;;;;;;4946246;28;20050;-84
2023/08/29 09:51:23;;;;;;;2.08;1.10;;;19.30;99.90;;;;;;4978612;28;20056;-84
2023/08/29 09:53:56;;;;;;;2.22;0.90;;;19.20;99.90;;;;;;4945019;28;20128;-84
2023/08/29 09:56:25;;;;;;;1.42;1.05;;;19.70;99.90;;;;;;4944941;28;20046;-84
2023/08/29 09:58:54;;;;;;;1.20;1.02;;;19.70;99.90;;;;;;4963297;28;20050;-85
2023/08/29 10:01:22;;;;;;;2.03;1.00;;;19.70;99.90;;;;;;4964128;28;20046;-84
2023/08/29 10:03:48;;;;;;;0.85;0.63;;;19.70;99.90;;;;;;4975958;28;20436;-84
2023/08/29 10:06:17;;;;;;;1.52;0.90;;;19.90;99.90;;;;;;4947991;28;20042;-84
2023/08/29 10:08:55;;;;;;;2.45;0.85;;;19.90;99.90;;;;;;4959705;28;20054;-84
2023/08/29 10:11:21;;;;;;;1.75;0.77;;;20.40;99.90;;;;;;4960695;28;20428;-84
2023/08/29 10:13:48;;;;;;;0.82;0.73;;;20.60;99.90;;;;;;4959668;28;20121;-84
2023/08/29 10:16:15;;;;;;;1.40;0.77;;;20.80;99.90;;;;;;4940230;28;20042;-84
2023/08/29 10:18:42;;;;;;;1.38;0.85;;;20.60;99.90;;;;;;4957370;28;20089;-84
2023/08/29 10:21:09;;;;;;;2.90;1.23;;;21.00;99.90;;;;;;4956308;28;20422;-84
2023/08/29 10:23:36;;;;;;;1.13;0.80;;;20.90;99.90;;;;;;4961101;28;20057;-84
2023/08/29 10:26:02;;;;;;;1.10;1.00;;;20.80;99.90;;;;;;4941632;28;20074;-85
2023/08/29 10:28:29;;;;;;;1.20;0.90;;;20.70;99.90;;;;;;4953002;28;20557;-84
2023/08/29 10:31:00;;;;;;;1.90;0.93;;;20.60;99.90;;;;;;4976017;28;20039;-85
2023/08/29 10:33:26;;;;;;;2.10;1.20;;;20.30;99.90;;;;;;4955183;28;20070;-84
2023/08/29 10:35:52;;;;;;;1.63;0.90;;;20.50;99.90;;;;;;4953715;28;20082;-85
2023/08/29 10:38:18;;;;;;;1.45;1.17;;;20.40;99.90;;;;;;4957665;28;20121;-84
2023/08/29 10:41:04;;;;;;;3.65;1.20;;;20.30;99.90;;;;;;4953620;28;20042;-85
2023/08/29 10:43:30;;;;;;;1.23;1.00;;;20.40;99.90;;;;;;4937723;28;20035;-84
2023/08/29 10:45:57;;;;;;;1.20;0.95;;;20.10;99.90;;;;;;4958888;28;20046;-85
2023/08/29 10:48:43;;;;;;;2.60;1.13;;;20.00;99.90;;;;;;4957501;28;20054;-85
2023/08/29 10:51:10;;;;;;;2.28;1.20;;;20.10;99.90;;;;;;4971672;28;20601;-84
2023/08/29 10:53:51;;;;;;;1.95;1.20;;;20.30;99.90;;;;;;4958856;28;20483;-84
2023/08/29 10:56:20;;;;;;;0.93;0.82;;;20.30;99.90;;;;;;4972146;28;20047;-84
2023/08/29 10:58:50;;;;;;;1.40;1.10;;;20.10;99.90;;;;;;4948559;28;20043;-84
2023/08/29 11:01:26;;;;;;;1.58;1.00;;;20.00;99.90;;;;;;4973960;28;20104;-84
2023/08/29 11:03:53;;;;;;;2.13;0.95;;;20.20;99.90;;;;;;4972965;28;20132;-84
2023/08/29 11:06:21;;;;;;;1.75;1.33;;;20.40;99.90;;;;;;4955662;28;20038;-83
2023/08/29 11:08:46;;;;;;;1.65;0.55;;;20.80;99.90;;;;;;4957444;28;20094;-84
2023/08/29 11:11:22;;;;;;;1.95;1.20;;;20.90;99.90;;;;;;4973953;28;20178;-84
2023/08/29 11:14:06;;;;;;;1.75;1.25;;;21.30;99.90;;;;;;4956653;28;20034;-84
2023/08/29 11:16:36;;;;;;;2.13;1.45;;;21.80;99.90;;;;;;4955935;28;20402;-83
2023/08/29 11:19:09;;;;;;;2.22;1.65;;;21.50;99.90;;;;;;4956332;28;20422;-83
2023/08/29 11:21:35;;;;;;;1.33;1.13;;;21.60;99.90;;;;;;4971126;28;20061;-84
2023/08/29 11:24:02;;;;;;;2.28;1.40;;;21.60;99.90;;;;;;4940373;28;20498;-84
2023/08/29 11:26:28;;;;;;;1.73;1.20;;;21.70;99.90;;;;;;4939939;28;20129;-84
2023/08/29 11:28:54;;;;;;;1.20;1.10;;;21.80;99.90;;;;;;4954519;28;20034;-85
2023/08/29 11:31:21;;;;;;;1.20;1.08;;;21.80;99.90;;;;;;4954903;28;20505;-84
2023/08/29 11:33:47;;;;;;;2.78;1.52;;;21.50;99.90;;;;;;4958871;28;20046;-84
2023/08/29 11:36:13;;;;;;;2.08;1.55;;;21.20;99.90;;;;;;4955395;28;20500;-84
2023/08/29 11:38:39;;;;;;;2.47;1.27;;;21.50;99.90;;;;;;4957703;28;20423;-84
2023/08/29 11:41:05;;;;;;;2.70;1.48;;;21.60;99.90;;;;;;4953440;28;20177;-85
2023/08/29 11:43:34;;;;;;;2.60;1.40;;;21.40;99.90;;;;;;4954880;28;20455;-83
2023/08/29 11:46:01;;;;;;;2.50;1.45;;;20.80;99.90;;;;;;4969611;28;20038;-84
2023/08/29 11:48:29;;;;;;;2.10;1.50;;;21.30;99.90;;;;;;4973563;28;20046;-83
2023/08/29 11:51:06;;;;;;;1.98;1.70;;;21.10;99.90;;;;;;4942189;28;20134;-84
2023/08/29 11:53:36;;;;;;;2.30;1.58;;;21.60;99.90;;;;;;4955341;28;20051;-84
2023/08/29 11:56:09;;;;;;;3.10;1.67;;;21.80;99.90;;;;;;4952153;28;20668;-84
2023/08/29 11:58:36;;;;;;;2.42;1.67;;;21.80;99.90;;;;;;4941284;28;20101;-84
2023/08/29 12:01:07;;;;;;;2.50;1.63;;;21.30;99.90;;;;;;4954224;28;20050;-84
2023/08/29 12:03:37;;;;;;;2.65;1.52;;;21.50;99.90;;;;;;4939177;28;20103;-82
2023/08/29 12:06:09;;;;;;;4.43;1.80;;;21.60;99.90;;;;;;4958631;28;20043;-83
2023/08/29 12:08:47;;;;;;;2.35;1.70;;;21.50;99.90;;;;;;4957971;28;20156;-85
2023/08/29 12:11:15;;;;;;;2.17;1.40;;;21.50;99.90;;;;;;4936285;28;20098;-85
2023/08/29 12:14:07;;;;;;;2.63;1.52;;;21.30;99.90;;;;;;4940476;28;20068;-84
2023/08/29 12:16:33;;;;;;;2.50;1.45;;;21.30;99.90;;;;;;4971338;28;20074;-84
2023/08/29 12:19:13;;;;;;;3.08;1.48;;;21.50;99.90;;;;;;4940318;28;20082;-83
2023/08/29 12:21:39;;;;;;;4.35;1.50;;;21.40;99.90;;;;;;4958507;28;20038;-83
2023/08/29 12:24:12;;;;;;;4.80;1.70;;;21.30;99.90;;;;;;4972832;28;20038;-83
2023/08/29 12:26:40;;;;;;;2.08;1.58;;;21.20;99.90;;;;;;4955805;28;20049;-84
2023/08/29 12:29:06;;;;;;;1.63;1.45;;;21.40;99.90;;;;;;4969668;28;20051;-83
2023/08/29 12:31:33;;;;;;;2.17;1.90;;;21.50;99.90;;;;;;4945064;28;20492;-84
2023/08/29 12:33:59;;;;;;;2.00;1.80;;;21.20;99.90;;;;;;4956798;28;20047;-83
2023/08/29 12:36:24;;;;;;;2.40;1.45;;;21.30;99.90;;;;;;4937312;28;20094;-84
2023/08/29 12:38:50;;;;;;;1.48;1.38;;;21.30;99.90;;;;;;4955832;28;20118;-84
2023/08/29 12:41:18;;;;;;;1.73;1.30;;;21.60;99.90;;;;;;4951745;28;20054;-84
2023/08/29 12:43:44;;;;;;;2.58;1.90;;;21.60;99.90;;;;;;4941886;28;20043;-83
2023/08/29 12:46:10;;;;;;;1.80;1.45;;;21.90;99.90;;;;;;4961323;28;20043;-84
2023/08/29 12:48:35;;;;;;;1.58;1.48;;;22.10;99.90;;;;;;4959703;28;20035;-84